Aviation Digital Data Service (ADDS)

Output produced by METARs form (1315 UTC 26 March 2019)
found at http://www.aviationweather.gov/metar/data/
 
METAR text: ESOW 261250Z AUTO 35010KT 9999 OVC041/// 04/M06 Q1017
Conditions at: ESOW (VASTERAS/HASSLO , SE) observed 1250 UTC 26 March 2019
Temperature: 4.0°C (39°F)
Dewpoint: -6.0°C (21°F) [RH = 48%]
Pressure (altimeter): 30.03 inches Hg (1017.0 mb)
Winds: from the N (350 degrees) at 12 MPH (10 knots; 5.1 m/s)
Visibility: 6 or more miles (10+ km)
Ceiling: 4100 feet AGL
Clouds: overcast cloud deck at 4100 feet AGL
Weather: no significant weather observed at this time

METAR text: ESOW 261220Z AUTO 35008KT 290V030 9999 OVC040/// 04/M06 Q1017
Conditions at: ESOW (VASTERAS/HASSLO , SE) observed 1220 UTC 26 March 2019
Temperature: 4.0°C (39°F)
Dewpoint: -6.0°C (21°F) [RH = 48%]
Pressure (altimeter): 30.03 inches Hg (1017.0 mb)
Winds: from the N (350 degrees) at 9 MPH (8 knots; 4.1 m/s)
Visibility: 6 or more miles (10+ km)
Ceiling: 4000 feet AGL
Clouds: overcast cloud deck at 4000 feet AGL
Weather: no significant weather observed at this time

METAR text: ESOW 261150Z AUTO 36010KT 310V060 9999 OVC040/// 04/M06 Q1017
Conditions at: ESOW (VASTERAS/HASSLO , SE) observed 1150 UTC 26 March 2019
Temperature: 4.0°C (39°F)
Dewpoint: -6.0°C (21°F) [RH = 48%]
Pressure (altimeter): 30.03 inches Hg (1017.0 mb)
Winds: from the N (360 degrees) at 12 MPH (10 knots; 5.1 m/s)
Visibility: 6 or more miles (10+ km)
Ceiling: 4000 feet AGL
Clouds: overcast cloud deck at 4000 feet AGL
Weather: no significant weather observed at this time

METAR text: ESOW 261120Z AUTO 34012KT 9999 OVC038/// 04/M06 Q1017
Conditions at: ESOW (VASTERAS/HASSLO , SE) observed 1120 UTC 26 March 2019
Temperature: 4.0°C (39°F)
Dewpoint: -6.0°C (21°F) [RH = 48%]
Pressure (altimeter): 30.03 inches Hg (1017.0 mb)
Winds: from the NNW (340 degrees) at 14 MPH (12 knots; 6.2 m/s)
Visibility: 6 or more miles (10+ km)
Ceiling: 3800 feet AGL
Clouds: overcast cloud deck at 3800 feet AGL
Weather: no significant weather observed at this time

METAR text: ESOW 261050Z AUTO 33010KT 300V010 9999 OVC039/// 04/M07 Q1016
Conditions at: ESOW (VASTERAS/HASSLO , SE) observed 1050 UTC 26 March 2019
Temperature: 4.0°C (39°F)
Dewpoint: -7.0°C (19°F) [RH = 44%]
Pressure (altimeter): 30.00 inches Hg (1016.0 mb)
Winds: from the NNW (330 degrees) at 12 MPH (10 knots; 5.1 m/s)
Visibility: 6 or more miles (10+ km)
Ceiling: 3900 feet AGL
Clouds: overcast cloud deck at 3900 feet AGL
Weather: no significant weather observed at this time

METAR text: ESOW 261020Z AUTO 34011KT 300V030 9999 OVC039/// 04/M07 Q1016
Conditions at: ESOW (VASTERAS/HASSLO , SE) observed 1020 UTC 26 March 2019
Temperature: 4.0°C (39°F)
Dewpoint: -7.0°C (19°F) [RH = 44%]
Pressure (altimeter): 30.00 inches Hg (1016.0 mb)
Winds: from the NNW (340 degrees) at 13 MPH (11 knots; 5.7 m/s)
Visibility: 6 or more miles (10+ km)
Ceiling: 3900 feet AGL
Clouds: overcast cloud deck at 3900 feet AGL
Weather: no significant weather observed at this time

METAR text: ESOW 260950Z AUTO 35014KT 320V030 9999 OVC039/// 03/M07 Q1016
Conditions at: ESOW (VASTERAS/HASSLO , SE) observed 0950 UTC 26 March 2019
Temperature: 3.0°C (37°F)
Dewpoint: -7.0°C (19°F) [RH = 48%]
Pressure (altimeter): 30.00 inches Hg (1016.0 mb)
Winds: from the N (350 degrees) at 16 MPH (14 knots; 7.2 m/s)
Visibility: 6 or more miles (10+ km)
Ceiling: 3900 feet AGL
Clouds: overcast cloud deck at 3900 feet AGL
Weather: no significant weather observed at this time

METAR text: ESOW 260920Z AUTO 35016KT 9999 OVC044/// 03/M07 Q1015
Conditions at: ESOW (VASTERAS/HASSLO , SE) observed 0920 UTC 26 March 2019
Temperature: 3.0°C (37°F)
Dewpoint: -7.0°C (19°F) [RH = 48%]
Pressure (altimeter): 29.97 inches Hg (1015.0 mb)
Winds: from the N (350 degrees) at 18 MPH (16 knots; 8.2 m/s)
Visibility: 6 or more miles (10+ km)
Ceiling: 4400 feet AGL
Clouds: overcast cloud deck at 4400 feet AGL
Weather: no significant weather observed at this time

METAR text: ESOW 260850Z AUTO 35016KT 9999 OVC043/// 02/M07 Q1015
Conditions at: ESOW (VASTERAS/HASSLO , SE) observed 0850 UTC 26 March 2019
Temperature: 2.0°C (36°F)
Dewpoint: -7.0°C (19°F) [RH = 51%]
Pressure (altimeter): 29.97 inches Hg (1015.0 mb)
Winds: from the N (350 degrees) at 18 MPH (16 knots; 8.2 m/s)
Visibility: 6 or more miles (10+ km)
Ceiling: 4300 feet AGL
Clouds: overcast cloud deck at 4300 feet AGL
Weather: no significant weather observed at this time

METAR text: ESOW 260820Z AUTO 35014KT 9999 OVC037/// 02/M07 Q1014
Conditions at: ESOW (VASTERAS/HASSLO , SE) observed 0820 UTC 26 March 2019
Temperature: 2.0°C (36°F)
Dewpoint: -7.0°C (19°F) [RH = 51%]
Pressure (altimeter): 29.94 inches Hg (1014.0 mb)
Winds: from the N (350 degrees) at 16 MPH (14 knots; 7.2 m/s)
Visibility: 6 or more miles (10+ km)
Ceiling: 3700 feet AGL
Clouds: overcast cloud deck at 3700 feet AGL
Weather: no significant weather observed at this time

METAR text: ESOW 260750Z AUTO 35013KT 310V020 9999 BKN034/// OVC043/// 02/M06 Q1013
Conditions at: ESOW (VASTERAS/HASSLO , SE) observed 0750 UTC 26 March 2019
Temperature: 2.0°C (36°F)
Dewpoint: -6.0°C (21°F) [RH = 55%]
Pressure (altimeter): 29.91 inches Hg (1013.0 mb)
Winds: from the N (350 degrees) at 15 MPH (13 knots; 6.7 m/s)
Visibility: 6 or more miles (10+ km)
Ceiling: 3400 feet AGL
Clouds: broken clouds at 3400 feet AGL
overcast cloud deck at 4300 feet AGL
Weather: no significant weather observed at this time

METAR text: ESOW 260720Z AUTO 35012KT 9999 OVC030/// 02/M05 Q1012 RESG
Conditions at: ESOW (VASTERAS/HASSLO , SE) observed 0720 UTC 26 March 2019
Temperature: 2.0°C (36°F)
Dewpoint: -5.0°C (23°F) [RH = 60%]
Pressure (altimeter): 29.88 inches Hg (1012.0 mb)
Winds: from the N (350 degrees) at 14 MPH (12 knots; 6.2 m/s)
Visibility: 6 or more miles (10+ km)
Ceiling: 3000 feet AGL
Clouds: overcast cloud deck at 3000 feet AGL
Weather: no significant weather observed at this time

METAR text: ESOW 260650Z AUTO 35015KT 320V020 9999 SG ///////// 01/M05 Q1012 REUP
Conditions at: ESOW (VASTERAS/HASSLO , SE) observed 0650 UTC 26 March 2019
Temperature: 1.0°C (34°F)
Dewpoint: -5.0°C (23°F) [RH = 64%]
Pressure (altimeter): 29.88 inches Hg (1012.0 mb)
Winds: from the N (350 degrees) at 17 MPH (15 knots; 7.7 m/s)
Visibility: 6 or more miles (10+ km)
Ceiling: unknown
Clouds: missing
Weather: SG  (moderate snow grains)

METAR text: ESOW 260620Z AUTO 35016KT 9999 -SN VV040 01/M05 Q1011 RESHUP
Conditions at: ESOW (VASTERAS/HASSLO , SE) observed 0620 UTC 26 March 2019
Temperature: 1.0°C (34°F)
Dewpoint: -5.0°C (23°F) [RH = 64%]
Pressure (altimeter): 29.85 inches Hg (1011.0 mb)
Winds: from the N (350 degrees) at 18 MPH (16 knots; 8.2 m/s)
Visibility: 6 or more miles (10+ km)
Ceiling: indefinite ceiling with vertical visibility of 4000 feet AGL
Clouds: obscured sky
Weather: -SN  (light snow)

METAR text: ESOW 260550Z AUTO 33020G31KT 9999 -SN FEW022/// BKN030/// BKN044/// 01/M06 Q1010 REUP
Conditions at: ESOW (VASTERAS/HASSLO , SE) observed 0550 UTC 26 March 2019
Temperature: 1.0°C (34°F)
Dewpoint: -6.0°C (21°F) [RH = 59%]
Pressure (altimeter): 29.82 inches Hg (1010.0 mb)
Winds: from the NNW (330 degrees) at 23 MPH (20 knots; 10.3 m/s)
gusting to 36 MPH (31 knots; 15.9 m/s)
Visibility: 6 or more miles (10+ km)
Ceiling: 3000 feet AGL
Clouds: few clouds at 2200 feet AGL
broken clouds at 3000 feet AGL
broken clouds at 4400 feet AGL
Weather: -SN  (light snow)

METAR text: ESOW 260520Z AUTO 32014KT 9999 FEW041/// SCT053/// 01/M07 Q1009
Conditions at: ESOW (VASTERAS/HASSLO , SE) observed 0520 UTC 26 March 2019
Temperature: 1.0°C (34°F)
Dewpoint: -7.0°C (19°F) [RH = 55%]
Pressure (altimeter): 29.79 inches Hg (1009.0 mb)
Winds: from the NW (320 degrees) at 16 MPH (14 knots; 7.2 m/s)
Visibility: 6 or more miles (10+ km)
Ceiling: at least 12,000 feet AGL
Clouds: few clouds at 4100 feet AGL
scattered clouds at 5300 feet AGL
Weather: no significant weather observed at this time

METAR text: ESOW 260450Z AUTO 32013G24KT 9999 NCD 02/M09 Q1009
Conditions at: ESOW (VASTERAS/HASSLO , SE) observed 0450 UTC 26 March 2019
Temperature: 2.0°C (36°F)
Dewpoint: -9.0°C (16°F) [RH = 44%]
Pressure (altimeter): 29.79 inches Hg (1009.0 mb)
Winds: from the NW (320 degrees) at 15 MPH (13 knots; 6.7 m/s)
gusting to 28 MPH (24 knots; 12.3 m/s)
Visibility: 6 or more miles (10+ km)
Ceiling: at least 12,000 feet AGL
Clouds: sky clear below 12,000 feet AGL
Weather: no significant weather observed at this time

METAR text: ESOW 260420Z AUTO 31013KT 9999 FEW098/// 02/M09 Q1008
Conditions at: ESOW (VASTERAS/HASSLO , SE) observed 0420 UTC 26 March 2019
Temperature: 2.0°C (36°F)
Dewpoint: -9.0°C (16°F) [RH = 44%]
Pressure (altimeter): 29.76 inches Hg (1008.0 mb)
Winds: from the NW (310 degrees) at 15 MPH (13 knots; 6.7 m/s)
Visibility: 6 or more miles (10+ km)
Ceiling: at least 12,000 feet AGL
Clouds: few clouds at 9800 feet AGL
Weather: no significant weather observed at this time

METAR text: ESOW 260350Z AUTO 31012KT 9999 SCT090/// 02/M09 Q1008
Conditions at: ESOW (VASTERAS/HASSLO , SE) observed 0350 UTC 26 March 2019
Temperature: 2.0°C (36°F)
Dewpoint: -9.0°C (16°F) [RH = 44%]
Pressure (altimeter): 29.76 inches Hg (1008.0 mb)
Winds: from the NW (310 degrees) at 14 MPH (12 knots; 6.2 m/s)
Visibility: 6 or more miles (10+ km)
Ceiling: at least 12,000 feet AGL
Clouds: scattered clouds at 9000 feet AGL
Weather: no significant weather observed at this time

METAR text: ESOW 260320Z AUTO 31011KT 280V340 9999 SCT094/// 02/M09 Q1008
Conditions at: ESOW (VASTERAS/HASSLO , SE) observed 0320 UTC 26 March 2019
Temperature: 2.0°C (36°F)
Dewpoint: -9.0°C (16°F) [RH = 44%]
Pressure (altimeter): 29.76 inches Hg (1008.0 mb)
Winds: from the NW (310 degrees) at 13 MPH (11 knots; 5.7 m/s)
Visibility: 6 or more miles (10+ km)
Ceiling: at least 12,000 feet AGL
Clouds: scattered clouds at 9400 feet AGL
Weather: no significant weather observed at this time

METAR text: ESOW 260250Z AUTO 31011KT 280V340 9999 SCT100/// 03/M08 Q1008
Conditions at: ESOW (VASTERAS/HASSLO , SE) observed 0250 UTC 26 March 2019
Temperature: 3.0°C (37°F)
Dewpoint: -8.0°C (18°F) [RH = 44%]
Pressure (altimeter): 29.76 inches Hg (1008.0 mb)
Winds: from the NW (310 degrees) at 13 MPH (11 knots; 5.7 m/s)
Visibility: 6 or more miles (10+ km)
Ceiling: at least 12,000 feet AGL
Clouds: scattered clouds at 10000 feet AGL
Weather: no significant weather observed at this time

METAR text: ESOW 260220Z AUTO 30012KT 270V340 9999 BKN100/// 03/M08 Q1008
Conditions at: ESOW (VASTERAS/HASSLO , SE) observed 0220 UTC 26 March 2019
Temperature: 3.0°C (37°F)
Dewpoint: -8.0°C (18°F) [RH = 44%]
Pressure (altimeter): 29.76 inches Hg (1008.0 mb)
Winds: from the WNW (300 degrees) at 14 MPH (12 knots; 6.2 m/s)
Visibility: 6 or more miles (10+ km)
Ceiling: 10000 feet AGL
Clouds: broken clouds at 10000 feet AGL
Weather: no significant weather observed at this time

METAR text: ESOW 260150Z AUTO 32015G26KT 280V350 9999 NCD 03/M09 Q1008
Conditions at: ESOW (VASTERAS/HASSLO , SE) observed 0150 UTC 26 March 2019
Temperature: 3.0°C (37°F)
Dewpoint: -9.0°C (16°F) [RH = 41%]
Pressure (altimeter): 29.76 inches Hg (1008.0 mb)
Winds: from the NW (320 degrees) at 17 MPH (15 knots; 7.7 m/s)
gusting to 30 MPH (26 knots; 13.4 m/s)
Visibility: 6 or more miles (10+ km)
Ceiling: at least 12,000 feet AGL
Clouds: sky clear below 12,000 feet AGL
Weather: no significant weather observed at this time

METAR text: ESOW 260120Z AUTO 32014KT 9999 FEW100/// 03/M08 Q1008
Conditions at: ESOW (VASTERAS/HASSLO , SE) observed 0120 UTC 26 March 2019
Temperature: 3.0°C (37°F)
Dewpoint: -8.0°C (18°F) [RH = 44%]
Pressure (altimeter): 29.76 inches Hg (1008.0 mb)
Winds: from the NW (320 degrees) at 16 MPH (14 knots; 7.2 m/s)
Visibility: 6 or more miles (10+ km)
Ceiling: at least 12,000 feet AGL
Clouds: few clouds at 10000 feet AGL
Weather: no significant weather observed at this time

METAR text: ESOW 260050Z AUTO 30008KT 260V330 9999 FEW110/// 03/M09 Q1008
Conditions at: ESOW (VASTERAS/HASSLO , SE) observed 0050 UTC 26 March 2019
Temperature: 3.0°C (37°F)
Dewpoint: -9.0°C (16°F) [RH = 41%]
Pressure (altimeter): 29.76 inches Hg (1008.0 mb)
Winds: from the WNW (300 degrees) at 9 MPH (8 knots; 4.1 m/s)
Visibility: 6 or more miles (10+ km)
Ceiling: at least 12,000 feet AGL
Clouds: few clouds at 11000 feet AGL
Weather: no significant weather observed at this time

METAR text: ESOW 260020Z AUTO 28005KT 230V330 9999 FEW094/// SCT110/// 02/M09 Q1009
Conditions at: ESOW (VASTERAS/HASSLO , SE) observed 0020 UTC 26 March 2019
Temperature: 2.0°C (36°F)
Dewpoint: -9.0°C (16°F) [RH = 44%]
Pressure (altimeter): 29.79 inches Hg (1009.0 mb)
Winds: from the W (280 degrees) at 6 MPH (5 knots; 2.6 m/s)
Visibility: 6 or more miles (10+ km)
Ceiling: at least 12,000 feet AGL
Clouds: few clouds at 9400 feet AGL
scattered clouds at 11000 feet AGL
Weather: no significant weather observed at this time

METAR text: ESOW 252350Z AUTO 24005KT 210V290 9999 SCT080/// OVC110/// 02/M08 Q1009
Conditions at: ESOW (VASTERAS/HASSLO , SE) observed 2350 UTC 25 March 2019
Temperature: 2.0°C (36°F)
Dewpoint: -8.0°C (18°F) [RH = 47%]
Pressure (altimeter): 29.79 inches Hg (1009.0 mb)
Winds: from the WSW (240 degrees) at 6 MPH (5 knots; 2.6 m/s)
Visibility: 6 or more miles (10+ km)
Ceiling: 11000 feet AGL
Clouds: scattered clouds at 8000 feet AGL
overcast cloud deck at 11000 feet AGL
Weather: no significant weather observed at this time

METAR text: ESOW 252320Z AUTO 24005KT 210V290 9999 BKN072/// 02/M08 Q1009
Conditions at: ESOW (VASTERAS/HASSLO , SE) observed 2320 UTC 25 March 2019
Temperature: 2.0°C (36°F)
Dewpoint: -8.0°C (18°F) [RH = 47%]
Pressure (altimeter): 29.79 inches Hg (1009.0 mb)
Winds: from the WSW (240 degrees) at 6 MPH (5 knots; 2.6 m/s)
Visibility: 6 or more miles (10+ km)
Ceiling: 7200 feet AGL
Clouds: broken clouds at 7200 feet AGL
Weather: no significant weather observed at this time

METAR text: ESOW 252250Z AUTO 25005KT 220V290 9999 OVC076/// 02/M08 Q1010
Conditions at: ESOW (VASTERAS/HASSLO , SE) observed 2250 UTC 25 March 2019
Temperature: 2.0°C (36°F)
Dewpoint: -8.0°C (18°F) [RH = 47%]
Pressure (altimeter): 29.82 inches Hg (1010.0 mb)
Winds: from the WSW (250 degrees) at 6 MPH (5 knots; 2.6 m/s)
Visibility: 6 or more miles (10+ km)
Ceiling: 7600 feet AGL
Clouds: overcast cloud deck at 7600 feet AGL
Weather: no significant weather observed at this time

METAR text: ESOW 252220Z AUTO 23005KT 190V270 9999 NCD 02/M08 Q1010
Conditions at: ESOW (VASTERAS/HASSLO , SE) observed 2220 UTC 25 March 2019
Temperature: 2.0°C (36°F)
Dewpoint: -8.0°C (18°F) [RH = 47%]
Pressure (altimeter): 29.82 inches Hg (1010.0 mb)
Winds: from the SW (230 degrees) at 6 MPH (5 knots; 2.6 m/s)
Visibility: 6 or more miles (10+ km)
Ceiling: at least 12,000 feet AGL
Clouds: sky clear below 12,000 feet AGL
Weather: no significant weather observed at this time

METAR text: ESOW 252150Z AUTO 24005KT 9999 SCT110/// BKN170/// 02/M08 Q1011
Conditions at: ESOW (VASTERAS/HASSLO , SE) observed 2150 UTC 25 March 2019
Temperature: 2.0°C (36°F)
Dewpoint: -8.0°C (18°F) [RH = 47%]
Pressure (altimeter): 29.85 inches Hg (1011.0 mb)
Winds: from the WSW (240 degrees) at 6 MPH (5 knots; 2.6 m/s)
Visibility: 6 or more miles (10+ km)
Ceiling: 17000 feet AGL
Clouds: scattered clouds at 11000 feet AGL
broken clouds at 17000 feet AGL
Weather: no significant weather observed at this time

METAR text: ESOW 252120Z AUTO 24004KT 220V280 9999 SCT100/// OVC120/// 02/M07 Q1011
Conditions at: ESOW (VASTERAS/HASSLO , SE) observed 2120 UTC 25 March 2019
Temperature: 2.0°C (36°F)
Dewpoint: -7.0°C (19°F) [RH = 51%]
Pressure (altimeter): 29.85 inches Hg (1011.0 mb)
Winds: from the WSW (240 degrees) at 5 MPH (4 knots; 2.1 m/s)
Visibility: 6 or more miles (10+ km)
Ceiling: 12000 feet AGL
Clouds: scattered clouds at 10000 feet AGL
overcast cloud deck at 12000 feet AGL
Weather: no significant weather observed at this time

METAR text: ESOW 252050Z AUTO 23004KT 9999 OVC100/// 02/M07 Q1012
Conditions at: ESOW (VASTERAS/HASSLO , SE) observed 2050 UTC 25 March 2019
Temperature: 2.0°C (36°F)
Dewpoint: -7.0°C (19°F) [RH = 51%]
Pressure (altimeter): 29.88 inches Hg (1012.0 mb)
Winds: from the SW (230 degrees) at 5 MPH (4 knots; 2.1 m/s)
Visibility: 6 or more miles (10+ km)
Ceiling: 10000 feet AGL
Clouds: overcast cloud deck at 10000 feet AGL
Weather: no significant weather observed at this time

METAR text: ESOW 252020Z AUTO 24005KT 9999 BKN110/// 03/M07 Q1012
Conditions at: ESOW (VASTERAS/HASSLO , SE) observed 2020 UTC 25 March 2019
Temperature: 3.0°C (37°F)
Dewpoint: -7.0°C (19°F) [RH = 48%]
Pressure (altimeter): 29.88 inches Hg (1012.0 mb)
Winds: from the WSW (240 degrees) at 6 MPH (5 knots; 2.6 m/s)
Visibility: 6 or more miles (10+ km)
Ceiling: 11000 feet AGL
Clouds: broken clouds at 11000 feet AGL
Weather: no significant weather observed at this time

METAR text: ESOW 251950Z AUTO 25004KT 9999 SCT120/// 03/M08 Q1013
Conditions at: ESOW (VASTERAS/HASSLO , SE) observed 1950 UTC 25 March 2019
Temperature: 3.0°C (37°F)
Dewpoint: -8.0°C (18°F) [RH = 44%]
Pressure (altimeter): 29.91 inches Hg (1013.0 mb)
Winds: from the WSW (250 degrees) at 5 MPH (4 knots; 2.1 m/s)
Visibility: 6 or more miles (10+ km)
Ceiling: at least 12,000 feet AGL
Clouds: scattered clouds at 12000 feet AGL
Weather: no significant weather observed at this time

METAR text: ESOW 251920Z AUTO 25004KT 9999 BKN120/// 03/M08 Q1013
Conditions at: ESOW (VASTERAS/HASSLO , SE) observed 1920 UTC 25 March 2019
Temperature: 3.0°C (37°F)
Dewpoint: -8.0°C (18°F) [RH = 44%]
Pressure (altimeter): 29.91 inches Hg (1013.0 mb)
Winds: from the WSW (250 degrees) at 5 MPH (4 knots; 2.1 m/s)
Visibility: 6 or more miles (10+ km)
Ceiling: 12000 feet AGL
Clouds: broken clouds at 12000 feet AGL
Weather: no significant weather observed at this time

METAR text: ESOW 251850Z AUTO 26005KT 9999 BKN120/// 04/M08 Q1013
Conditions at: ESOW (VASTERAS/HASSLO , SE) observed 1850 UTC 25 March 2019
Temperature: 4.0°C (39°F)
Dewpoint: -8.0°C (18°F) [RH = 41%]
Pressure (altimeter): 29.91 inches Hg (1013.0 mb)
Winds: from the W (260 degrees) at 6 MPH (5 knots; 2.6 m/s)
Visibility: 6 or more miles (10+ km)
Ceiling: 12000 feet AGL
Clouds: broken clouds at 12000 feet AGL
Weather: no significant weather observed at this time

METAR text: ESOW 251820Z AUTO 26004KT 9999 SCT130/// 04/M08 Q1013
Conditions at: ESOW (VASTERAS/HASSLO , SE) observed 1820 UTC 25 March 2019
Temperature: 4.0°C (39°F)
Dewpoint: -8.0°C (18°F) [RH = 41%]
Pressure (altimeter): 29.91 inches Hg (1013.0 mb)
Winds: from the W (260 degrees) at 5 MPH (4 knots; 2.1 m/s)
Visibility: 6 or more miles (10+ km)
Ceiling: at least 12,000 feet AGL
Clouds: scattered clouds at 13000 feet AGL
Weather: no significant weather observed at this time

METAR text: ESOW 251750Z AUTO 27004KT 240V320 9999 FEW130/// 03/M08 Q1013
Conditions at: ESOW (VASTERAS/HASSLO , SE) observed 1750 UTC 25 March 2019
Temperature: 3.0°C (37°F)
Dewpoint: -8.0°C (18°F) [RH = 44%]
Pressure (altimeter): 29.91 inches Hg (1013.0 mb)
Winds: from the W (270 degrees) at 5 MPH (4 knots; 2.1 m/s)
Visibility: 6 or more miles (10+ km)
Ceiling: at least 12,000 feet AGL
Clouds: few clouds at 13000 feet AGL
Weather: no significant weather observed at this time

METAR text: ESOW 251720Z AUTO 29003KT 9999 NCD 05/M08 Q1013
Conditions at: ESOW (VASTERAS/HASSLO , SE) observed 1720 UTC 25 March 2019
Temperature: 5.0°C (41°F)
Dewpoint: -8.0°C (18°F) [RH = 38%]
Pressure (altimeter): 29.91 inches Hg (1013.0 mb)
Winds: from the WNW (290 degrees) at 3 MPH (3 knots; 1.5 m/s)
Visibility: 6 or more miles (10+ km)
Ceiling: at least 12,000 feet AGL
Clouds: sky clear below 12,000 feet AGL
Weather: no significant weather observed at this time

METAR text: ESOW 251650Z AUTO 32004KT 280V360 9999 NCD 05/M08 Q1013
Conditions at: ESOW (VASTERAS/HASSLO , SE) observed 1650 UTC 25 March 2019
Temperature: 5.0°C (41°F)
Dewpoint: -8.0°C (18°F) [RH = 38%]
Pressure (altimeter): 29.91 inches Hg (1013.0 mb)
Winds: from the NW (320 degrees) at 5 MPH (4 knots; 2.1 m/s)
Visibility: 6 or more miles (10+ km)
Ceiling: at least 12,000 feet AGL
Clouds: sky clear below 12,000 feet AGL
Weather: no significant weather observed at this time

METAR text: ESOW 251620Z AUTO 34007KT 9999 NCD 05/M08 Q1014
Conditions at: ESOW (VASTERAS/HASSLO , SE) observed 1620 UTC 25 March 2019
Temperature: 5.0°C (41°F)
Dewpoint: -8.0°C (18°F) [RH = 38%]
Pressure (altimeter): 29.94 inches Hg (1014.0 mb)
Winds: from the NNW (340 degrees) at 8 MPH (7 knots; 3.6 m/s)
Visibility: 6 or more miles (10+ km)
Ceiling: at least 12,000 feet AGL
Clouds: sky clear below 12,000 feet AGL
Weather: no significant weather observed at this time

METAR text: ESOW 251550Z AUTO 34009KT 310V010 9999 NCD 06/M09 Q1014
Conditions at: ESOW (VASTERAS/HASSLO , SE) observed 1550 UTC 25 March 2019
Temperature: 6.0°C (43°F)
Dewpoint: -9.0°C (16°F) [RH = 33%]
Pressure (altimeter): 29.94 inches Hg (1014.0 mb)
Winds: from the NNW (340 degrees) at 10 MPH (9 knots; 4.6 m/s)
Visibility: 6 or more miles (10+ km)
Ceiling: at least 12,000 feet AGL
Clouds: sky clear below 12,000 feet AGL
Weather: no significant weather observed at this time

METAR text: ESOW 251520Z AUTO 34013KT 310V010 9999 NCD 07/M10 Q1014
Conditions at: ESOW (VASTERAS/HASSLO , SE) observed 1520 UTC 25 March 2019
Temperature: 7.0°C (45°F)
Dewpoint: -10.0°C (14°F) [RH = 29%]
Pressure (altimeter): 29.94 inches Hg (1014.0 mb)
Winds: from the NNW (340 degrees) at 15 MPH (13 knots; 6.7 m/s)
Visibility: 6 or more miles (10+ km)
Ceiling: at least 12,000 feet AGL
Clouds: sky clear below 12,000 feet AGL
Weather: no significant weather observed at this time

METAR text: ESOW 251450Z 32009KT 290V030 CAVOK 07/M09 Q1013 R01/09//95
Conditions at: ESOW (VASTERAS/HASSLO , SE) observed 1450 UTC 25 March 2019
Temperature: 7.0°C (45°F)
Dewpoint: -9.0°C (16°F) [RH = 31%]
Pressure (altimeter): 29.91 inches Hg (1013.0 mb)
Winds: from the NW (320 degrees) at 10 MPH (9 knots; 4.6 m/s)
Visibility: 6 or more miles (10+ km)
Ceiling: ceiling and visibility are OK
Clouds: unknown
Weather: no significant weather observed at this time

METAR text: ESOW 251420Z 32013KT 280V340 CAVOK 07/M10 Q1013 R01/09//95
Conditions at: ESOW (VASTERAS/HASSLO , SE) observed 1420 UTC 25 March 2019
Temperature: 7.0°C (45°F)
Dewpoint: -10.0°C (14°F) [RH = 29%]
Pressure (altimeter): 29.91 inches Hg (1013.0 mb)
Winds: from the NW (320 degrees) at 15 MPH (13 knots; 6.7 m/s)
Visibility: 6 or more miles (10+ km)
Ceiling: ceiling and visibility are OK
Clouds: unknown
Weather: no significant weather observed at this time

METAR text: ESOW 251350Z 34010KT 290V010 CAVOK 07/M09 Q1013 R01/09//95
Conditions at: ESOW (VASTERAS/HASSLO , SE) observed 1350 UTC 25 March 2019
Temperature: 7.0°C (45°F)
Dewpoint: -9.0°C (16°F) [RH = 31%]
Pressure (altimeter): 29.91 inches Hg (1013.0 mb)
Winds: from the NNW (340 degrees) at 12 MPH (10 knots; 5.1 m/s)
Visibility: 6 or more miles (10+ km)
Ceiling: ceiling and visibility are OK
Clouds: unknown
Weather: no significant weather observed at this time

METAR text: ESOW 251320Z 31011KT 280V360 CAVOK 07/M08 Q1013 R01/09//95
Conditions at: ESOW (VASTERAS/HASSLO , SE) observed 1320 UTC 25 March 2019
Temperature: 7.0°C (45°F)
Dewpoint: -8.0°C (18°F) [RH = 33%]
Pressure (altimeter): 29.91 inches Hg (1013.0 mb)
Winds: from the NW (310 degrees) at 13 MPH (11 knots; 5.7 m/s)
Visibility: 6 or more miles (10+ km)
Ceiling: ceiling and visibility are OK
Clouds: unknown
Weather: no significant weather observed at this time

METAR text: ESOW 251250Z 34012KT 290V030 CAVOK 07/M07 Q1013 R01/09//95
Conditions at: ESOW (VASTERAS/HASSLO , SE) observed 1250 UTC 25 March 2019
Temperature: 7.0°C (45°F)
Dewpoint: -7.0°C (19°F) [RH = 36%]
Pressure (altimeter): 29.91 inches Hg (1013.0 mb)
Winds: from the NNW (340 degrees) at 14 MPH (12 knots; 6.2 m/s)
Visibility: 6 or more miles (10+ km)
Ceiling: ceiling and visibility are OK
Clouds: unknown
Weather: no significant weather observed at this time

METAR text: ESOW 251220Z 33012KT 300V010 CAVOK 07/M08 Q1013 R01/09//95
Conditions at: ESOW (VASTERAS/HASSLO , SE) observed 1220 UTC 25 March 2019
Temperature: 7.0°C (45°F)
Dewpoint: -8.0°C (18°F) [RH = 33%]
Pressure (altimeter): 29.91 inches Hg (1013.0 mb)
Winds: from the NNW (330 degrees) at 14 MPH (12 knots; 6.2 m/s)
Visibility: 6 or more miles (10+ km)
Ceiling: ceiling and visibility are OK
Clouds: unknown
Weather: no significant weather observed at this time

METAR text: ESOW 251150Z 33011KT CAVOK 07/M08 Q1013 R01/09//95
Conditions at: ESOW (VASTERAS/HASSLO , SE) observed 1150 UTC 25 March 2019
Temperature: 7.0°C (45°F)
Dewpoint: -8.0°C (18°F) [RH = 33%]
Pressure (altimeter): 29.91 inches Hg (1013.0 mb)
Winds: from the NNW (330 degrees) at 13 MPH (11 knots; 5.7 m/s)
Visibility: 6 or more miles (10+ km)
Ceiling: ceiling and visibility are OK
Clouds: unknown
Weather: no significant weather observed at this time

METAR text: ESOW 251120Z 34012KT 300V020 CAVOK 06/M08 Q1012 R01/09//95
Conditions at: ESOW (VASTERAS/HASSLO , SE) observed 1120 UTC 25 March 2019
Temperature: 6.0°C (43°F)
Dewpoint: -8.0°C (18°F) [RH = 36%]
Pressure (altimeter): 29.88 inches Hg (1012.0 mb)
Winds: from the NNW (340 degrees) at 14 MPH (12 knots; 6.2 m/s)
Visibility: 6 or more miles (10+ km)
Ceiling: ceiling and visibility are OK
Clouds: unknown
Weather: no significant weather observed at this time

METAR text: ESOW 251050Z 34011KT 300V010 CAVOK 06/M08 Q1012 R01/09//95
Conditions at: ESOW (VASTERAS/HASSLO , SE) observed 1050 UTC 25 March 2019
Temperature: 6.0°C (43°F)
Dewpoint: -8.0°C (18°F) [RH = 36%]
Pressure (altimeter): 29.88 inches Hg (1012.0 mb)
Winds: from the NNW (340 degrees) at 13 MPH (11 knots; 5.7 m/s)
Visibility: 6 or more miles (10+ km)
Ceiling: ceiling and visibility are OK
Clouds: unknown
Weather: no significant weather observed at this time

METAR text: ESOW 251020Z 36014KT 330V030 CAVOK 06/M07 Q1012 R01/09//95
Conditions at: ESOW (VASTERAS/HASSLO , SE) observed 1020 UTC 25 March 2019
Temperature: 6.0°C (43°F)
Dewpoint: -7.0°C (19°F) [RH = 39%]
Pressure (altimeter): 29.88 inches Hg (1012.0 mb)
Winds: from the N (360 degrees) at 16 MPH (14 knots; 7.2 m/s)
Visibility: 6 or more miles (10+ km)
Ceiling: ceiling and visibility are OK
Clouds: unknown
Weather: no significant weather observed at this time

METAR text: ESOW 250950Z 35012KT 9999 FEW045 05/M06 Q1012 R01/09//95
Conditions at: ESOW (VASTERAS/HASSLO , SE) observed 0950 UTC 25 March 2019
Temperature: 5.0°C (41°F)
Dewpoint: -6.0°C (21°F) [RH = 45%]
Pressure (altimeter): 29.88 inches Hg (1012.0 mb)
Winds: from the N (350 degrees) at 14 MPH (12 knots; 6.2 m/s)
Visibility: 6 or more miles (10+ km)
Ceiling: at least 12,000 feet AGL
Clouds: few clouds at 4500 feet AGL
Weather: no significant weather observed at this time

METAR text: ESOW 250920Z 36013KT 9999 FEW032 04/M04 Q1011 R01/09//95
Conditions at: ESOW (VASTERAS/HASSLO , SE) observed 0920 UTC 25 March 2019
Temperature: 4.0°C (39°F)
Dewpoint: -4.0°C (25°F) [RH = 56%]
Pressure (altimeter): 29.85 inches Hg (1011.0 mb)
Winds: from the N (360 degrees) at 15 MPH (13 knots; 6.7 m/s)
Visibility: 6 or more miles (10+ km)
Ceiling: at least 12,000 feet AGL
Clouds: few clouds at 3200 feet AGL
Weather: no significant weather observed at this time

METAR text: ESOW 250850Z 01016KT 9999 FEW012 03/M03 Q1011 R01/09//95
Conditions at: ESOW (VASTERAS/HASSLO , SE) observed 0850 UTC 25 March 2019
Temperature: 3.0°C (37°F)
Dewpoint: -3.0°C (27°F) [RH = 65%]
Pressure (altimeter): 29.85 inches Hg (1011.0 mb)
Winds: from the N (10 degrees) at 18 MPH (16 knots; 8.2 m/s)
Visibility: 6 or more miles (10+ km)
Ceiling: at least 12,000 feet AGL
Clouds: few clouds at 1200 feet AGL
Weather: no significant weather observed at this time

METAR text: ESOW 250820Z 01012KT 9999 FEW012 03/M02 Q1011 R01/09//95
Conditions at: ESOW (VASTERAS/HASSLO , SE) observed 0820 UTC 25 March 2019
Temperature: 3.0°C (37°F)
Dewpoint: -2.0°C (28°F) [RH = 70%]
Pressure (altimeter): 29.85 inches Hg (1011.0 mb)
Winds: from the N (10 degrees) at 14 MPH (12 knots; 6.2 m/s)
Visibility: 6 or more miles (10+ km)
Ceiling: at least 12,000 feet AGL
Clouds: few clouds at 1200 feet AGL
Weather: no significant weather observed at this time

METAR text: ESOW 250750Z 01014KT 9999 -SHSN FEW012 SCT032 01/M02 Q1010 R01/09//95
Conditions at: ESOW (VASTERAS/HASSLO , SE) observed 0750 UTC 25 March 2019
Temperature: 1.0°C (34°F)
Dewpoint: -2.0°C (28°F) [RH = 80%]
Pressure (altimeter): 29.82 inches Hg (1010.0 mb)
Winds: from the N (10 degrees) at 16 MPH (14 knots; 7.2 m/s)
Visibility: 6 or more miles (10+ km)
Ceiling: at least 12,000 feet AGL
Clouds: few clouds at 1200 feet AGL
scattered clouds at 3200 feet AGL
Weather: -SHSN  (light snow showers)

METAR text: ESOW 250720Z 36018KT 9999 -SHSN FEW033 BKN055 02/M03 Q1010 R01/09//95
Conditions at: ESOW (VASTERAS/HASSLO , SE) observed 0720 UTC 25 March 2019
Temperature: 2.0°C (36°F)
Dewpoint: -3.0°C (27°F) [RH = 69%]
Pressure (altimeter): 29.82 inches Hg (1010.0 mb)
Winds: from the N (360 degrees) at 21 MPH (18 knots; 9.3 m/s)
Visibility: 6 or more miles (10+ km)
Ceiling: 5500 feet AGL
Clouds: few clouds at 3300 feet AGL
broken clouds at 5500 feet AGL
Weather: -SHSN  (light snow showers)

METAR text: ESOW 250650Z 01016KT CAVOK 02/M03 Q1009 R01/09//95
Conditions at: ESOW (VASTERAS/HASSLO , SE) observed 0650 UTC 25 March 2019
Temperature: 2.0°C (36°F)
Dewpoint: -3.0°C (27°F) [RH = 69%]
Pressure (altimeter): 29.79 inches Hg (1009.0 mb)
Winds: from the N (10 degrees) at 18 MPH (16 knots; 8.2 m/s)
Visibility: 6 or more miles (10+ km)
Ceiling: ceiling and visibility are OK
Clouds: unknown
Weather: no significant weather observed at this time

METAR text: ESOW 250620Z AUTO 01013KT 9999 OVC082/// 01/M03 Q1008
Conditions at: ESOW (VASTERAS/HASSLO , SE) observed 0620 UTC 25 March 2019
Temperature: 1.0°C (34°F)
Dewpoint: -3.0°C (27°F) [RH = 75%]
Pressure (altimeter): 29.76 inches Hg (1008.0 mb)
Winds: from the N (10 degrees) at 15 MPH (13 knots; 6.7 m/s)
Visibility: 6 or more miles (10+ km)
Ceiling: 8200 feet AGL
Clouds: overcast cloud deck at 8200 feet AGL
Weather: no significant weather observed at this time

METAR text: ESOW 250550Z AUTO 01011KT 9999 OVC078/// 01/M03 Q1008
Conditions at: ESOW (VASTERAS/HASSLO , SE) observed 0550 UTC 25 March 2019
Temperature: 1.0°C (34°F)
Dewpoint: -3.0°C (27°F) [RH = 75%]
Pressure (altimeter): 29.76 inches Hg (1008.0 mb)
Winds: from the N (10 degrees) at 13 MPH (11 knots; 5.7 m/s)
Visibility: 6 or more miles (10+ km)
Ceiling: 7800 feet AGL
Clouds: overcast cloud deck at 7800 feet AGL
Weather: no significant weather observed at this time

METAR text: ESOW 250520Z AUTO 34007KT 310V020 9999 BKN072/// 00/M02 Q1007
Conditions at: ESOW (VASTERAS/HASSLO , SE) observed 0520 UTC 25 March 2019
Temperature: 0.0°C (32°F)
Dewpoint: -2.0°C (28°F) [RH = 86%]
Pressure (altimeter): 29.73 inches Hg (1007.0 mb)
Winds: from the NNW (340 degrees) at 8 MPH (7 knots; 3.6 m/s)
Visibility: 6 or more miles (10+ km)
Ceiling: 7200 feet AGL
Clouds: broken clouds at 7200 feet AGL
Weather: no significant weather observed at this time

METAR text: ESOW 250450Z AUTO 31003KT 270V340 9999 NCD M01/M02 Q1007
Conditions at: ESOW (VASTERAS/HASSLO , SE) observed 0450 UTC 25 March 2019
Temperature: -1.0°C (30°F)
Dewpoint: -2.0°C (28°F) [RH = 93%]
Pressure (altimeter): 29.73 inches Hg (1007.0 mb)
Winds: from the NW (310 degrees) at 3 MPH (3 knots; 1.5 m/s)
Visibility: 6 or more miles (10+ km)
Ceiling: at least 12,000 feet AGL
Clouds: sky clear below 12,000 feet AGL
Weather: no significant weather observed at this time

METAR text: ESOW 250420Z AUTO VRB03KT 9000 NCD M01/M02 Q1006
Conditions at: ESOW (VASTERAS/HASSLO , SE) observed 0420 UTC 25 March 2019
Temperature: -1.0°C (30°F)
Dewpoint: -2.0°C (28°F) [RH = 93%]
Pressure (altimeter): 29.70 inches Hg (1006.0 mb)
Winds: variable direction winds at 3 MPH (3 knots; 1.5 m/s)
Visibility: 6 miles ( 9 km)
Ceiling: at least 12,000 feet AGL
Clouds: sky clear below 12,000 feet AGL
Weather: no significant weather observed at this time

METAR text: ESOW 250350Z AUTO VRB02KT 9999 NCD M00/M01 Q1006
Conditions at: ESOW (VASTERAS/HASSLO , SE) observed 0350 UTC 25 March 2019
Temperature: 0.0°C (32°F)
Dewpoint: -1.0°C (30°F) [RH = 93%]
Pressure (altimeter): 29.70 inches Hg (1006.0 mb)
Winds: variable direction winds at 2 MPH (2 knots; 1.0 m/s)
Visibility: 6 or more miles (10+ km)
Ceiling: at least 12,000 feet AGL
Clouds: sky clear below 12,000 feet AGL
Weather: no significant weather observed at this time

METAR text: ESOW 250320Z AUTO VRB02KT 9999 NCD M01/M02 Q1006
Conditions at: ESOW (VASTERAS/HASSLO , SE) observed 0320 UTC 25 March 2019
Temperature: -1.0°C (30°F)
Dewpoint: -2.0°C (28°F) [RH = 93%]
Pressure (altimeter): 29.70 inches Hg (1006.0 mb)
Winds: variable direction winds at 2 MPH (2 knots; 1.0 m/s)
Visibility: 6 or more miles (10+ km)
Ceiling: at least 12,000 feet AGL
Clouds: sky clear below 12,000 feet AGL
Weather: no significant weather observed at this time

METAR text: ESOW 250250Z AUTO 24003KT 220V280 9999 NCD 00/M01 Q1006
Conditions at: ESOW (VASTERAS/HASSLO , SE) observed 0250 UTC 25 March 2019
Temperature: 0.0°C (32°F)
Dewpoint: -1.0°C (30°F) [RH = 93%]
Pressure (altimeter): 29.70 inches Hg (1006.0 mb)
Winds: from the WSW (240 degrees) at 3 MPH (3 knots; 1.5 m/s)
Visibility: 6 or more miles (10+ km)
Ceiling: at least 12,000 feet AGL
Clouds: sky clear below 12,000 feet AGL
Weather: no significant weather observed at this time

METAR text: ESOW 250220Z AUTO VRB01KT 9999 NCD M01/M02 Q1006
Conditions at: ESOW (VASTERAS/HASSLO , SE) observed 0220 UTC 25 March 2019
Temperature: -1.0°C (30°F)
Dewpoint: -2.0°C (28°F) [RH = 93%]
Pressure (altimeter): 29.70 inches Hg (1006.0 mb)
Winds: variable direction winds at 1 MPH (1 knots; 0.5 m/s)
Visibility: 6 or more miles (10+ km)
Ceiling: at least 12,000 feet AGL
Clouds: sky clear below 12,000 feet AGL
Weather: no significant weather observed at this time

METAR text: ESOW 250150Z AUTO 00000KT 9999 NCD M01/M03 Q1006
Conditions at: ESOW (VASTERAS/HASSLO , SE) observed 0150 UTC 25 March 2019
Temperature: -1.0°C (30°F)
Dewpoint: -3.0°C (27°F) [RH = 86%]
Pressure (altimeter): 29.70 inches Hg (1006.0 mb)
Winds: calm
Visibility: 6 or more miles (10+ km)
Ceiling: at least 12,000 feet AGL
Clouds: sky clear below 12,000 feet AGL
Weather: no significant weather observed at this time

METAR text: ESOW 250120Z AUTO VRB02KT 9999 NCD 01/M01 Q1006
Conditions at: ESOW (VASTERAS/HASSLO , SE) observed 0120 UTC 25 March 2019
Temperature: 1.0°C (34°F)
Dewpoint: -1.0°C (30°F) [RH = 86%]
Pressure (altimeter): 29.70 inches Hg (1006.0 mb)
Winds: variable direction winds at 2 MPH (2 knots; 1.0 m/s)
Visibility: 6 or more miles (10+ km)
Ceiling: at least 12,000 feet AGL
Clouds: sky clear below 12,000 feet AGL
Weather: no significant weather observed at this time